Craig Municipal Airport
KCRG : now visible

Airfield :











YOU CAN JOIN US ON...

 
LOGIN :

Register | Disclaimer

   EN    FR    IT 

 









Legend :    VFR   Marginal VFR   IFR   Intensive IFR   Very Intensive IFR
Visi :
Ceiling :
>= 8 km
>= 3000ft
5 to 8 km
1000 to 3000 ft
1500m to 5 km
500 to 1000 ft
800 to 1500m
200 to 500 ft
< 800m
< 200 ft
Symbols :   Thunderstorms  Fog  Heavy snow  Heavy precipitations  Wind > 20 kt







- Airport Elevation : 41 ft


KCRG - Craig Municipal

CURRENT METAR :
  • 201553Z 25020G29KT 10SM FEW044 18/06 A2995 RMK AO2 PK WND 23029/1458 SLP140 T01780056

EXPIRED METARs :
  • 201453Z 25014G22KT 10SM FEW034 17/08 A2994 RMK AO2 SLP137 T01670078 51020
  • 201353Z 27009KT 10SM SCT041 BKN050 OVC065 15/08 A2992 RMK AO2 SLP132 T01500078

TAF KCRG
Valid from the 20 at 14:00 until the 21 at 12:00 UTC


201403Z 2014/2112 26009G16KT 6SM -SHRA BKN040
FM201530 25014G21KT P6SM SCT050
FM210000 25007KT P6SM FEW250
KZJX FIR / North America



MET'MAP, your aeronautical weather chart ! - Copyright ORBIFLY December 2007 - Disclaimer

ORBIFLY MET'MAP TEAM :

Programming & Development : Alexandra Zaïnal
Concept & Development : Baudouin d'Aumeries
Co-Development & Prog : Marc-Olivier Méhu
Technical & hardware support : Manuel Goepfert

Contact : metmap@orbifly.com




SOURCES & CREDITS :

   NOAA       Earth
Advisory